createdAt,value
2022-12-04T00:01:22.470Z,101879.75
2022-12-04T00:03:53.832Z,101880.78
2022-12-04T00:06:22.677Z,101882.97
2022-12-04T00:08:50.751Z,101877.72
2022-12-04T00:11:26.032Z,101874.09
2022-12-04T00:13:52.972Z,101881.06
2022-12-04T00:16:23.951Z,101886.59
2022-12-04T00:18:51.322Z,101885.69
2022-12-04T00:21:19.886Z,101877.50
2022-12-04T00:23:47.893Z,101880.25
2022-12-04T00:26:20.701Z,101870.78
2022-12-04T00:28:47.991Z,101868.22
2022-12-04T00:31:23.342Z,101878.97
2022-12-04T00:33:50.417Z,101875.19
2022-12-04T00:36:21.293Z,101864.56
2022-12-04T00:38:48.530Z,101861.31
2022-12-04T00:41:18.098Z,101855.22
2022-12-04T00:43:45.856Z,101859.34
2022-12-04T00:46:14.273Z,101858.78
2022-12-04T00:48:41.867Z,101862.41
2022-12-04T00:51:13.788Z,101856.16
2022-12-04T00:53:40.604Z,101860.75
2022-12-04T00:56:14.022Z,101859.94
2022-12-04T00:58:41.429Z,101861.91
2022-12-04T01:01:12.401Z,101868.75
2022-12-04T01:03:40.025Z,101855.88
2022-12-04T01:06:07.781Z,101861.56
2022-12-04T01:08:34.592Z,101862.53
2022-12-04T01:11:06.843Z,101865.53
2022-12-04T01:13:33.603Z,101862.75
2022-12-04T01:16:00.401Z,101858.44
2022-12-04T01:18:27.317Z,101863.22
2022-12-04T01:20:53.955Z,101861.00
2022-12-04T01:23:20.768Z,101860.47
2022-12-04T01:25:56.691Z,101864.38
2022-12-04T01:28:24.328Z,101865.97
2022-12-04T01:31:07.323Z,101861.47
2022-12-04T01:33:36.562Z,101863.16
2022-12-04T01:36:07.276Z,101865.31
2022-12-04T01:38:35.124Z,101865.06
2022-12-04T01:41:02.372Z,101859.28
2022-12-04T01:43:32.817Z,101862.00
2022-12-04T01:46:00.868Z,101867.22
2022-12-04T01:48:40.072Z,101856.97
2022-12-04T01:51:28.446Z,101860.28
2022-12-04T01:54:05.222Z,101859.69
2022-12-04T01:56:57.440Z,101848.31
2022-12-04T01:59:30.692Z,101853.16
2022-12-04T02:02:15.493Z,101856.63
2022-12-04T02:04:43.633Z,101854.50
2022-12-04T02:07:12.218Z,101849.88
2022-12-04T02:09:40.701Z,101849.97
2022-12-04T02:12:39.087Z,101842.09
2022-12-04T02:15:30.008Z,101842.78
2022-12-04T02:19:04.236Z,101845.03
2022-12-04T02:21:35.736Z,101847.19
2022-12-04T02:24:50.119Z,101844.94
2022-12-04T02:28:25.004Z,101825.06
2022-12-04T02:30:58.743Z,101836.13
2022-12-04T02:33:53.996Z,101838.16
2022-12-04T02:36:31.105Z,101828.72
2022-12-04T02:39:15.434Z,101831.78
2022-12-04T02:42:13.693Z,101820.78
2022-12-04T02:44:50.281Z,101820.72
2022-12-04T02:47:23.239Z,101821.59
2022-12-04T02:50:01.733Z,101823.41
2022-12-04T02:52:36.911Z,101818.50
2022-12-04T02:55:20.379Z,101804.94
2022-12-04T02:57:56.028Z,101799.28
2022-12-04T03:00:22.937Z,101798.66
2022-12-04T03:03:02.804Z,101794.38
2022-12-04T03:05:43.221Z,101785.75
2022-12-04T03:08:19.487Z,101799.56
2022-12-04T03:10:55.797Z,101802.97
2022-12-04T03:13:37.890Z,101810.09
2022-12-04T03:16:17.635Z,101799.94
2022-12-04T03:18:56.048Z,101810.78
2022-12-04T03:21:31.065Z,101812.13
2022-12-04T03:24:29.186Z,101794.66
2022-12-04T03:27:43.059Z,101812.03
2022-12-04T03:30:16.134Z,101813.22
2022-12-04T03:33:09.589Z,101821.78
2022-12-04T03:36:00.376Z,101828.09
2022-12-04T03:38:39.151Z,101822.38
2022-12-04T03:41:20.044Z,101811.06
2022-12-04T03:44:02.163Z,101813.91
2022-12-04T03:47:11.838Z,101821.47
2022-12-04T03:50:02.384Z,101821.81
2022-12-04T03:52:58.050Z,101812.09
2022-12-04T03:55:34.090Z,101810.81
2022-12-04T03:58:08.125Z,101803.75
2022-12-04T04:00:41.307Z,101811.66
2022-12-04T04:03:24.058Z,101803.22
2022-12-04T04:05:58.571Z,101804.19
2022-12-04T04:08:34.003Z,101804.06
2022-12-04T04:11:27.728Z,101811.63
2022-12-04T04:14:25.536Z,101802.75
2022-12-04T04:17:24.380Z,101806.00
2022-12-04T04:20:19.640Z,101801.88
2022-12-04T04:23:08.005Z,101798.84
2022-12-04T04:25:40.503Z,101795.25
2022-12-04T04:28:38.255Z,101796.13
2022-12-04T04:31:29.642Z,101805.03
2022-12-04T04:34:11.321Z,101780.81
2022-12-04T04:37:06.103Z,101791.59
2022-12-04T04:39:51.186Z,101779.31
2022-12-04T04:42:22.728Z,101771.81
2022-12-04T04:45:18.591Z,101778.75
2022-12-04T04:47:56.852Z,101791.13
2022-12-04T04:50:24.331Z,101786.53
2022-12-04T04:52:57.628Z,101783.56
2022-12-04T04:55:24.591Z,101786.38
2022-12-04T04:57:51.371Z,101791.53
2022-12-04T05:00:22.306Z,101800.38
2022-12-04T05:02:50.272Z,101797.41
2022-12-04T05:05:17.869Z,101794.16
2022-12-04T05:07:44.682Z,101797.53
2022-12-04T05:10:11.690Z,101802.56
2022-12-04T05:12:38.475Z,101797.00
2022-12-04T05:15:05.850Z,101795.09
2022-12-04T05:17:35.651Z,101797.09
2022-12-04T05:20:04.655Z,101793.88
2022-12-04T05:22:36.409Z,101790.34
2022-12-04T05:25:07.706Z,101787.25
2022-12-04T05:27:34.409Z,101795.72
2022-12-04T05:30:01.105Z,101799.63
2022-12-04T05:32:29.386Z,101789.94
2022-12-04T05:34:57.598Z,101803.91
2022-12-04T05:37:25.526Z,101784.63
2022-12-04T05:39:52.675Z,101781.06
2022-12-04T05:42:19.805Z,101780.97
2022-12-04T05:44:47.564Z,101768.13
2022-12-04T05:47:14.203Z,101781.94
2022-12-04T05:49:40.817Z,101784.66
2022-12-04T05:52:07.585Z,101785.03
2022-12-04T05:54:34.239Z,101783.59
2022-12-04T05:57:00.922Z,101785.22
2022-12-04T05:59:27.818Z,101781.09
2022-12-04T06:01:54.660Z,101780.19
2022-12-04T06:04:21.624Z,101784.31
2022-12-04T06:06:48.542Z,101776.31
2022-12-04T06:09:15.239Z,101789.34
2022-12-04T06:11:43.515Z,101776.00
2022-12-04T06:14:14.677Z,101786.88
2022-12-04T06:16:45.822Z,101773.59
2022-12-04T06:19:19.439Z,101777.38
2022-12-04T06:21:51.770Z,101775.38
2022-12-04T06:24:24.585Z,101779.25
2022-12-04T06:27:26.111Z,101771.38
2022-12-04T06:29:42.051Z,101779.16
2022-12-04T06:32:08.848Z,101780.16
2022-12-04T06:34:36.961Z,101784.09
2022-12-04T06:37:03.810Z,101785.63
2022-12-04T06:39:30.510Z,101778.19
2022-12-04T06:41:58.226Z,101776.06
2022-12-04T06:44:24.972Z,101779.03
2022-12-04T06:46:54.716Z,101779.91
2022-12-04T06:49:22.902Z,101786.31
2022-12-04T06:51:49.673Z,101783.25
2022-12-04T06:54:16.438Z,101785.81
2022-12-04T06:56:43.162Z,101783.75
2022-12-04T06:59:10.300Z,101790.75
2022-12-04T07:01:37.252Z,101790.16
2022-12-04T07:04:04.643Z,101784.88
2022-12-04T07:06:37.638Z,101796.56
2022-12-04T07:09:14.686Z,101789.69
2022-12-04T07:11:43.303Z,101795.38
2022-12-04T07:14:11.321Z,101796.22
2022-12-04T07:16:41.496Z,101800.50
2022-12-04T07:19:13.781Z,101792.28
2022-12-04T07:21:41.764Z,101793.00
2022-12-04T07:24:12.837Z,101792.50
2022-12-04T07:26:39.581Z,101792.16
2022-12-04T07:29:06.365Z,101788.00
2022-12-04T07:31:33.068Z,101784.25
2022-12-04T07:33:59.841Z,101790.59
2022-12-04T07:36:27.231Z,101785.31
2022-12-04T07:38:56.117Z,101790.00
2022-12-04T07:41:23.605Z,101790.03
2022-12-04T07:43:50.316Z,101794.25
2022-12-04T07:46:22.444Z,101804.91
2022-12-04T07:48:49.318Z,101801.28
2022-12-04T07:51:19.950Z,101804.28
2022-12-04T07:53:47.602Z,101796.53
2022-12-04T07:56:15.306Z,101791.28
2022-12-04T07:58:43.086Z,101801.50
2022-12-04T08:01:16.565Z,101801.97
2022-12-04T08:03:48.508Z,101806.41
2022-12-04T08:06:21.658Z,101801.16
2022-12-04T08:08:49.935Z,101802.44
2022-12-04T08:11:20.297Z,101812.81
2022-12-04T08:13:47.028Z,101811.03
2022-12-04T08:16:15.145Z,101814.25
2022-12-04T08:18:46.522Z,101809.13
2022-12-04T08:21:17.453Z,101817.03
2022-12-04T08:23:44.772Z,101804.88
2022-12-04T08:26:12.135Z,101811.56
2022-12-04T08:28:39.943Z,101811.66
2022-12-04T08:31:10.648Z,101816.88
2022-12-04T08:33:37.657Z,101820.44
2022-12-04T08:36:10.300Z,101817.56
2022-12-04T08:38:37.198Z,101820.91
2022-12-04T08:41:06.670Z,101829.16
2022-12-04T08:43:34.414Z,101806.00
2022-12-04T08:46:06.069Z,101804.31
2022-12-04T08:48:33.783Z,101819.03
2022-12-04T08:51:01.071Z,101815.78
2022-12-04T08:53:27.797Z,101816.94
2022-12-04T08:55:54.457Z,101814.56
2022-12-04T08:58:21.885Z,101819.66
2022-12-04T09:00:48.691Z,101818.28
2022-12-04T09:03:18.562Z,101822.03
2022-12-04T09:05:46.083Z,101818.16
2022-12-04T09:08:16.869Z,101814.75
2022-12-04T09:10:44.317Z,101820.94
2022-12-04T09:13:11.054Z,101820.59
2022-12-04T09:15:41.567Z,101824.69
2022-12-04T09:18:09.204Z,101812.44
2022-12-04T09:20:36.783Z,101807.69
2022-12-04T09:23:05.743Z,101803.94
2022-12-04T09:25:36.590Z,101812.97
2022-12-04T09:28:04.303Z,101816.34
2022-12-04T09:30:31.036Z,101814.09
2022-12-04T09:32:57.810Z,101819.56
2022-12-04T09:35:24.518Z,101804.94
2022-12-04T09:37:51.270Z,101807.28
2022-12-04T09:40:37.861Z,101810.88
2022-12-04T09:43:26.054Z,101803.28
2022-12-04T09:45:59.102Z,101802.63
2022-12-04T09:48:35.603Z,101803.91
2022-12-04T09:51:04.939Z,101795.47
2022-12-04T09:54:02.074Z,101793.94
2022-12-04T09:56:32.138Z,101794.09
2022-12-04T09:59:27.396Z,101800.81
2022-12-04T10:02:09.404Z,101798.13
2022-12-04T10:04:36.204Z,101783.19
2022-12-04T10:07:25.378Z,101784.97
2022-12-04T10:10:08.380Z,101779.66
2022-12-04T10:13:29.298Z,101783.19
2022-12-04T10:16:23.014Z,101779.31
2022-12-04T10:18:52.498Z,101780.97
2022-12-04T10:21:48.585Z,101782.22
2022-12-04T10:24:34.739Z,101776.97
2022-12-04T10:27:10.720Z,101782.22
2022-12-04T10:29:41.393Z,101779.09
2022-12-04T10:32:20.208Z,101771.38
2022-12-04T10:34:50.568Z,101783.25
2022-12-04T10:37:17.447Z,101776.97
2022-12-04T10:40:03.160Z,101773.28
2022-12-04T10:42:38.532Z,101772.16
2022-12-04T10:45:07.157Z,101759.31
2022-12-04T10:47:34.715Z,101757.97
2022-12-04T10:50:12.912Z,101759.06
2022-12-04T10:52:39.628Z,101749.47
2022-12-04T10:55:06.846Z,101743.97
2022-12-04T10:57:46.416Z,101743.59
2022-12-04T11:00:34.117Z,101749.28
2022-12-04T11:03:08.760Z,101748.06
2022-12-04T11:05:43.544Z,101748.13
2022-12-04T11:08:33.346Z,101747.56
2022-12-04T11:11:11.332Z,101743.56
2022-12-04T11:13:39.313Z,101736.47
2022-12-04T11:16:06.648Z,101735.22
2022-12-04T11:18:47.896Z,101736.25
2022-12-04T11:21:27.629Z,101728.47
2022-12-04T11:23:54.705Z,101728.44
2022-12-04T11:26:41.639Z,101721.19
2022-12-04T11:29:16.673Z,101719.94
2022-12-04T11:31:52.916Z,101720.06
2022-12-04T11:34:24.809Z,101721.88
2022-12-04T11:36:57.055Z,101724.13
2022-12-04T11:39:38.905Z,101716.75
2022-12-04T11:42:31.680Z,101721.94
2022-12-04T11:44:58.856Z,101721.56
2022-12-04T11:47:32.511Z,101723.28
2022-12-04T11:50:32.543Z,101707.72
2022-12-04T11:53:07.705Z,101708.25
2022-12-04T11:56:07.799Z,101708.81
2022-12-04T11:59:06.202Z,101706.97
2022-12-04T12:02:38.582Z,101700.53
2022-12-04T12:05:48.921Z,101703.66
2022-12-04T12:08:43.154Z,101705.94
2022-12-04T12:11:30.835Z,101692.38
2022-12-04T12:14:18.797Z,101691.75
2022-12-04T12:17:03.593Z,101705.19
2022-12-04T12:20:11.043Z,101703.03
2022-12-04T12:23:07.619Z,101700.16
2022-12-04T12:25:58.046Z,101690.56
2022-12-04T12:28:53.319Z,101698.44
2022-12-04T12:31:59.362Z,101693.44
2022-12-04T12:34:45.119Z,101689.28
2022-12-04T12:37:43.986Z,101693.25
2022-12-04T12:40:15.240Z,101706.88
2022-12-04T12:43:13.920Z,101700.84
2022-12-04T12:46:02.037Z,101705.72
2022-12-04T12:48:35.257Z,101707.31
2022-12-04T12:51:29.490Z,101698.97
2022-12-04T12:54:19.198Z,101699.97
2022-12-04T12:56:53.078Z,101694.41
2022-12-04T12:59:26.982Z,101699.66
2022-12-04T13:02:38.984Z,101694.34
2022-12-04T13:05:10.964Z,101705.22
2022-12-04T13:07:53.148Z,101695.09
2022-12-04T13:10:28.629Z,101692.66
2022-12-04T13:13:12.126Z,101697.75
2022-12-04T13:15:55.553Z,101692.25
2022-12-04T13:18:40.744Z,101679.78
2022-12-04T13:21:10.482Z,101687.59
2022-12-04T13:23:49.227Z,101682.22
2022-12-04T13:26:49.923Z,101675.94
2022-12-04T13:29:46.773Z,101657.28
2022-12-04T13:32:48.869Z,101651.66
2022-12-04T13:35:50.571Z,101651.94
2022-12-04T13:38:53.786Z,101654.31
2022-12-04T13:41:27.563Z,101654.13
2022-12-04T13:43:55.479Z,101660.88
2022-12-04T13:46:39.257Z,101650.66
2022-12-04T13:49:18.115Z,101649.19
2022-12-04T13:51:47.263Z,101650.56
2022-12-04T13:54:13.813Z,101639.44
2022-12-04T13:56:47.523Z,101640.53
2022-12-04T13:59:35.926Z,101642.09
2022-12-04T14:02:24.470Z,101644.44
2022-12-04T14:05:00.110Z,101647.31
2022-12-04T14:07:40.651Z,101649.19
2022-12-04T14:10:33.225Z,101642.22
2022-12-04T14:13:23.679Z,101640.09
2022-12-04T14:16:17.687Z,101637.13
2022-12-04T14:19:00.525Z,101627.06
2022-12-04T14:21:46.823Z,101632.94
2022-12-04T14:24:38.595Z,101625.78
2022-12-04T14:27:42.037Z,101629.06
2022-12-04T14:30:26.119Z,101634.91
2022-12-04T14:32:58.591Z,101635.28
2022-12-04T14:35:28.522Z,101622.09
2022-12-04T14:38:03.708Z,101625.63
2022-12-04T14:40:49.224Z,101625.84
2022-12-04T14:43:27.405Z,101633.59
2022-12-04T14:46:15.432Z,101631.63
2022-12-04T14:49:08.194Z,101622.78
2022-12-04T14:51:44.245Z,101627.22
2022-12-04T14:55:00.366Z,101614.56
2022-12-04T14:57:46.374Z,101615.00
2022-12-04T15:00:23.070Z,101616.03
2022-12-04T15:02:58.230Z,101615.41
2022-12-04T15:05:30.133Z,101619.44
2022-12-04T15:08:06.198Z,101612.56
2022-12-04T15:10:54.037Z,101618.66
2022-12-04T15:13:33.353Z,101629.81
2022-12-04T15:16:23.048Z,101615.28
2022-12-04T15:18:56.098Z,101634.00
2022-12-04T15:21:33.161Z,101629.09
2022-12-04T15:24:00.095Z,101641.72
2022-12-04T15:26:28.172Z,101616.44
2022-12-04T15:28:59.462Z,101638.38
2022-12-04T15:31:40.741Z,101635.41
2022-12-04T15:34:14.566Z,101637.88
2022-12-04T15:37:08.410Z,101636.28
2022-12-04T15:39:37.991Z,101619.31
2022-12-04T15:42:29.454Z,101644.06
2022-12-04T15:45:21.752Z,101640.47
2022-12-04T15:47:48.297Z,101643.53
2022-12-04T15:50:18.136Z,101638.72
2022-12-04T15:53:06.043Z,101650.84
2022-12-04T15:55:47.147Z,101641.81
2022-12-04T15:58:22.644Z,101645.53
2022-12-04T16:00:58.083Z,101645.72
2022-12-04T16:03:32.097Z,101644.09
2022-12-04T16:06:16.004Z,101645.75
2022-12-04T16:08:45.628Z,101635.22
2022-12-04T16:11:18.484Z,101637.25
2022-12-04T16:13:45.260Z,101642.72
2022-12-04T16:16:16.130Z,101639.59
2022-12-04T16:18:43.890Z,101644.28
2022-12-04T16:21:18.051Z,101656.56
2022-12-04T16:23:45.459Z,101639.66
2022-12-04T16:26:18.814Z,101639.47
2022-12-04T16:28:46.097Z,101645.06
2022-12-04T16:31:13.829Z,101647.94
2022-12-04T16:33:41.043Z,101640.00
2022-12-04T16:36:11.276Z,101640.63
2022-12-04T16:38:38.044Z,101636.47
2022-12-04T16:41:05.447Z,101635.84
2022-12-04T16:43:32.234Z,101633.84
2022-12-04T16:46:01.353Z,101635.28
2022-12-04T16:48:29.666Z,101632.41
2022-12-04T16:50:56.306Z,101626.84
2022-12-04T16:53:23.255Z,101625.25
2022-12-04T16:55:52.406Z,101626.56
2022-12-04T16:58:20.366Z,101618.03
2022-12-04T17:00:55.016Z,101626.91
2022-12-04T17:03:29.992Z,101628.00
2022-12-04T17:05:57.981Z,101624.81
2022-12-04T17:08:24.813Z,101621.56
2022-12-04T17:10:52.216Z,101622.78
2022-12-04T17:13:20.733Z,101614.56
2022-12-04T17:15:48.365Z,101629.72
2022-12-04T17:18:20.838Z,101631.06
2022-12-04T17:20:48.324Z,101621.00
2022-12-04T17:23:15.373Z,101617.81
2022-12-04T17:25:42.328Z,101619.31
2022-12-04T17:28:09.283Z,101616.88
2022-12-04T17:30:36.662Z,101620.13
2022-12-04T17:33:04.803Z,101624.50
2022-12-04T17:35:31.924Z,101619.34
2022-12-04T17:38:05.337Z,101620.75
2022-12-04T17:40:32.923Z,101617.81
2022-12-04T17:42:59.926Z,101609.50
2022-12-04T17:45:26.739Z,101612.59
2022-12-04T17:47:53.432Z,101608.44
2022-12-04T17:50:20.126Z,101617.19
2022-12-04T17:52:46.850Z,101607.13
2022-12-04T17:55:14.835Z,101618.13
2022-12-04T17:57:41.584Z,101612.09
2022-12-04T18:00:09.474Z,101615.00
2022-12-04T18:02:41.562Z,101614.03
2022-12-04T18:05:10.175Z,101610.91
2022-12-04T18:07:37.016Z,101615.22
2022-12-04T18:10:04.688Z,101625.97
2022-12-04T18:12:31.336Z,101626.69
2022-12-04T18:14:58.164Z,101620.13
2022-12-04T18:17:25.096Z,101618.25
2022-12-04T18:19:51.850Z,101627.94
2022-12-04T18:22:18.940Z,101620.63
2022-12-04T18:24:45.928Z,101623.19
2022-12-04T18:27:12.606Z,101628.59
2022-12-04T18:29:39.404Z,101625.97
2022-12-04T18:32:06.276Z,101625.66
2022-12-04T18:34:33.208Z,101612.25
2022-12-04T18:36:59.948Z,101616.75
2022-12-04T18:39:28.110Z,101622.50
2022-12-04T18:41:57.459Z,101621.50
2022-12-04T18:44:24.865Z,101619.56
2022-12-04T18:46:51.887Z,101627.16
2022-12-04T18:49:18.777Z,101631.25
2022-12-04T18:51:49.721Z,101631.22
2022-12-04T18:54:23.700Z,101624.81
2022-12-04T18:56:51.090Z,101630.19
2022-12-04T18:59:22.242Z,101624.66
2022-12-04T19:01:51.097Z,101630.72
2022-12-04T19:04:19.549Z,101633.81
2022-12-04T19:06:52.946Z,101632.44
2022-12-04T19:09:40.964Z,101639.09
2022-12-04T19:12:11.830Z,101643.25
2022-12-04T19:14:39.642Z,101642.97
2022-12-04T19:17:06.499Z,101619.59
2022-12-04T19:19:33.438Z,101630.13
2022-12-04T19:22:01.158Z,101632.81
2022-12-04T19:24:27.979Z,101636.09
2022-12-04T19:26:54.829Z,101632.81
2022-12-04T19:29:21.548Z,101632.28
2022-12-04T19:31:48.387Z,101627.44
2022-12-04T19:34:15.235Z,101621.53
2022-12-04T19:36:42.635Z,101625.31
2022-12-04T19:39:09.993Z,101622.97
2022-12-04T19:41:41.276Z,101619.44
2022-12-04T19:44:40.109Z,101625.00
2022-12-04T19:46:56.841Z,101626.22
2022-12-04T19:49:23.504Z,101628.06
2022-12-04T19:51:50.520Z,101629.09
2022-12-04T19:54:18.094Z,101630.09
2022-12-04T19:56:49.093Z,101631.34
2022-12-04T19:59:15.848Z,101627.66
2022-12-04T20:01:42.605Z,101634.47
2022-12-04T20:04:10.766Z,101626.44
2022-12-04T20:06:44.888Z,101614.16
2022-12-04T20:09:15.914Z,101616.41
2022-12-04T20:11:42.678Z,101621.72
2022-12-04T20:14:10.353Z,101624.63
2022-12-04T20:16:38.772Z,101605.78
2022-12-04T20:19:07.900Z,101594.00
2022-12-04T20:21:34.992Z,101608.94
2022-12-04T20:24:05.055Z,101614.06
2022-12-04T20:26:37.216Z,101617.47
2022-12-04T20:29:06.444Z,101607.00
2022-12-04T20:31:38.007Z,101609.56
2022-12-04T20:34:08.371Z,101601.91
2022-12-04T20:36:41.242Z,101608.09
2022-12-04T20:39:09.365Z,101605.75
2022-12-04T20:41:37.499Z,101600.94
2022-12-04T20:44:09.048Z,101605.59
2022-12-04T20:46:38.717Z,101608.91
2022-12-04T20:49:20.777Z,101600.59
2022-12-04T20:51:48.966Z,101601.50
2022-12-04T20:54:18.605Z,101607.22
2022-12-04T20:56:46.240Z,101613.41
2022-12-04T20:59:15.385Z,101603.59
2022-12-04T21:01:43.015Z,101598.31
2022-12-04T21:04:10.788Z,101597.19
2022-12-04T21:06:40.465Z,101600.84
2022-12-04T21:09:12.161Z,101599.06
2022-12-04T21:11:46.555Z,101601.56
2022-12-04T21:14:48.051Z,101594.69
2022-12-04T21:17:19.214Z,101606.50
2022-12-04T21:19:50.335Z,101596.63
2022-12-04T21:22:19.249Z,101587.56
2022-12-04T21:24:46.000Z,101590.66
2022-12-04T21:27:17.452Z,101600.44
2022-12-04T21:29:47.911Z,101578.03
2022-12-04T21:32:15.119Z,101588.50
2022-12-04T21:34:41.884Z,101588.13
2022-12-04T21:37:08.607Z,101583.47
2022-12-04T21:39:36.008Z,101582.41
2022-12-04T21:42:21.901Z,101581.03
2022-12-04T21:44:48.874Z,101581.31
2022-12-04T21:47:15.709Z,101573.66
2022-12-04T21:49:42.439Z,101572.84
2022-12-04T21:52:09.128Z,101571.13
2022-12-04T21:54:35.807Z,101576.63
2022-12-04T21:57:02.497Z,101571.97
2022-12-04T21:59:29.532Z,101562.69
2022-12-04T22:01:56.548Z,101565.25
2022-12-04T22:04:23.451Z,101559.84
2022-12-04T22:06:50.378Z,101561.53
2022-12-04T22:09:17.490Z,101558.38
2022-12-04T22:11:44.656Z,101562.28
2022-12-04T22:14:12.486Z,101565.47
2022-12-04T22:16:42.741Z,101552.97
2022-12-04T22:19:12.293Z,101559.53
2022-12-04T22:21:40.003Z,101559.81
2022-12-04T22:24:07.535Z,101556.16
2022-12-04T22:26:34.738Z,101566.19
2022-12-04T22:29:03.141Z,101556.56
2022-12-04T22:31:31.930Z,101553.16
2022-12-04T22:34:01.424Z,101565.63
2022-12-04T22:36:31.371Z,101560.56
2022-12-04T22:39:09.306Z,101557.72
2022-12-04T22:41:37.291Z,101548.47
2022-12-04T22:44:04.602Z,101554.09
2022-12-04T22:46:31.715Z,101555.38
2022-12-04T22:48:59.400Z,101548.59
2022-12-04T22:51:27.163Z,101544.47
2022-12-04T22:53:56.963Z,101559.06
2022-12-04T22:56:27.682Z,101546.81
2022-12-04T22:58:55.367Z,101537.38
2022-12-04T23:01:34.403Z,101532.53
2022-12-04T23:04:03.138Z,101530.91
2022-12-04T23:06:32.727Z,101538.97
2022-12-04T23:09:04.289Z,101532.03
2022-12-04T23:11:31.262Z,101514.81
2022-12-04T23:14:01.692Z,101532.03
2022-12-04T23:16:31.578Z,101536.81
2022-12-04T23:18:58.585Z,101530.44
2022-12-04T23:21:26.238Z,101526.69
2022-12-04T23:23:54.237Z,101528.69
2022-12-04T23:26:35.678Z,101529.25
2022-12-04T23:29:04.153Z,101527.44
2022-12-04T23:31:34.403Z,101520.41
2022-12-04T23:34:01.968Z,101524.75
2022-12-04T23:36:28.969Z,101521.38
2022-12-04T23:38:55.919Z,101516.91
2022-12-04T23:41:29.977Z,101521.66
2022-12-04T23:43:57.679Z,101517.84
2022-12-04T23:46:32.399Z,101531.19
2022-12-04T23:49:00.495Z,101521.63
2022-12-04T23:51:28.326Z,101516.50
2022-12-04T23:53:55.388Z,101518.00
2022-12-04T23:56:25.860Z,101518.47
2022-12-04T23:58:55.457Z,101521.69
